Latest Weather Observations for Gabo Island

IDV60801

Issued at 6:02 am EDT Monday 9 December 2019 (issued every 10 minutes, with the page automatically refreshed every 10 minutes)

About weather observations | Map of weather stations | Latest weather observations for VIC | Other Formats
Station Details ID: 084016 Name: GABO ISLAND LIGHTHOUSE Lat: -37.57 Lon: 149.92 Height: 15.2 m
Data from the previous 72 hours. | See also: Recent months at Gabo Island
Date/Time
EDT
Temp
°C
App
Temp
°C
Dew
Point
°C
Rel
Hum
%
Delta-T
°C
Wind Press
QNH
hPa
Press
MSL
hPa
Rain since
9am
mm
Dir  Spd
km/h
Gust
km/h
Spd
kts
Gust
kts
09/05:30am 17.4 12.9 15.5 89 1.1 NNE 33 43 18 23 1018.2 1018.2 0.0
09/05:00am 17.5 13.0 15.4 87 1.2 NNE 33 41 18 22 1018.4 1018.4 0.0
09/04:30am 17.6 12.1 14.8 84 1.6 NNE 37 52 20 28 1018.4 1018.4 0.0
09/04:00am 17.5 13.1 15.1 86 1.4 NNE 32 43 17 23 1018.8 1018.8 0.0
09/03:30am 17.3 12.8 14.9 86 1.4 NNE 32 39 17 21 1019.0 1019.0 0.0
09/03:00am 17.2 12.6 14.6 85 1.5 NNE 32 41 17 22 1019.3 1019.3 0.0
09/02:30am 17.3 11.3 14.3 82 1.7 NE 39 52 21 28 1019.5 1019.5 0.0
09/02:00am 17.4 12.5 14.2 81 1.8 NNE 33 43 18 23 1020.1 1020.1 0.0
09/01:30am 17.3 11.9 14.0 81 1.9 NNE 35 43 19 23 1020.2 1020.2 0.0
09/01:00am 17.3 11.9 13.8 80 2.0 NNE 35 43 19 23 1020.4 1020.4 0.0
09/12:30am 17.2 12.0 13.5 79 2.1 NNE 33 41 18 22 1020.8 1020.8 0.0
09/12:00am 17.2 12.0 13.5 79 2.1 NNE 33 41 18 22 1021.0 1021.0 0.0
 
Date/Time
EDT
Temp
°C
App
Temp
°C
Dew
Point
°C
Rel
Hum
%
Delta-T
°C
Wind Press
QNH
hPa
Press
MSL
hPa
Rain since
9am
mm
Dir  Spd
km/h
Gust
km/h
Spd
kts
Gust
kts
08/11:30pm 17.1 11.8 13.0 77 2.3 NNE 33 43 18 23 1021.3 1021.3 0.0
08/11:00pm 17.0 11.2 12.7 76 2.4 NNE 35 41 19 22 1021.3 1021.3 0.0
08/10:30pm 17.0 11.6 12.3 74 2.6 NNE 32 41 17 22 1021.6 1021.6 0.0
08/10:00pm 16.8 11.8 12.2 74 2.5 NNE 30 39 16 21 1021.5 1021.5 0.0
08/09:30pm 16.6 11.4 11.6 72 2.7 NE 30 37 16 20 1021.4 1021.4 0.0
08/09:00pm 16.6 11.8 11.6 72 2.7 NE 28 35 15 19 1021.3 1021.3 0.0
08/08:30pm 16.5 12.5 11.9 74 2.5 NE 24 30 13 16 1021.2 1021.2 0.0
08/08:00pm 16.5 12.9 11.9 74 2.5 NE 22 26 12 14 1021.1 1021.1 0.0
08/07:30pm 16.7 13.7 11.9 73 2.6 ENE 19 20 10 11 1021.1 1021.1 0.0
08/07:00pm 16.7 13.9 11.3 70 2.9 ENE 17 20 9 11 1021.0 1021.0 0.0
08/06:30pm 16.8 13.8 10.6 67 3.3 E 17 19 9 10 1020.6 1020.6 0.0
08/06:00pm 17.1 14.8 10.3 64 3.6 E 13 17 7 9 1020.7 1020.7 0.0
08/05:30pm 17.3 15.3 10.1 62 3.8 ESE 11 15 6 8 1020.7 1020.7 0.0
08/05:00pm 17.9 15.8 9.9 59 4.2 ESE 11 15 6 8 1020.6 1020.6 0.0
08/04:30pm 18.0 15.6 10.1 60 4.2 SE 13 15 7 8 1020.6 1020.6 0.0
08/04:00pm 17.9 15.2 10.2 60 4.1 SSE 15 19 8 10 1020.5 1020.5 0.0
08/03:30pm 18.7 16.8 10.5 59 4.4 SSE 11 15 6 8 1020.7 1020.7 0.0
08/03:00pm 18.2 15.4 10.1 59 4.3 SSE 15 19 8 10 1020.7 1020.7 0.0
08/02:30pm 18.6 15.0 10.6 59 4.3 S 20 24 11 13 1020.6 1020.6 0.0
08/02:00pm 18.1 13.9 9.7 58 4.4 S 22 26 12 14 1020.5 1020.5 0.0
08/01:30pm 18.4 13.8 9.7 57 4.6 S 24 28 13 15 1020.4 1020.4 0.0
08/01:00pm 18.0 13.0 9.4 57 4.5 S 26 30 14 16 1020.5 1020.5 0.0
08/12:30pm 18.1 12.8 10.0 59 4.3 SSW 28 32 15 17 1020.6 1020.6 0.0
08/12:00pm 17.1 11.6 10.5 65 3.5 SSW 30 33 16 18 1020.6 1020.6 0.0
08/11:30am 16.7 10.8 10.5 67 3.3 SSW 32 35 17 19 1020.7 1020.7 0.0
08/11:00am 15.8 9.7 9.8 67 3.1 SSW 32 37 17 20 1020.7 1020.7 0.0
08/10:30am 15.4 9.4 10.0 70 2.8 SSW 32 37 17 20 1020.6 1020.6 0.0
08/10:00am 15.5 9.6 10.4 71 2.7 SSW 32 35 17 19 1020.7 1020.7 0.0
08/09:30am 15.6 11.2 10.3 70 2.8 SW 24 30 13 16 1020.8 1020.8 0.0
08/09:00am 15.4 11.5 9.6 68 3.0 SW 20 24 11 13 1020.9 1020.9 0.0
08/08:30am 15.4 11.2 9.8 69 2.9 WSW 22 28 12 15 1020.8 1020.8 0.0
08/08:00am 14.9 10.7 9.7 71 2.7 WSW 22 28 12 15 1020.4 1020.4 0.0
08/07:30am 14.8 9.7 9.1 68 2.9 W 26 32 14 17 1020.0 1020.0 0.0
08/07:00am 14.7 9.3 9.4 70 2.7 WSW 28 35 15 19 1019.4 1019.4 0.0
08/06:30am 14.6 8.9 9.8 73 2.5 WSW 30 37 16 20 1019.1 1019.1 0.0
08/06:00am 14.5 8.8 9.9 74 2.4 WSW 30 35 16 19 1018.8 1018.8 0.0
08/05:30am 14.4 8.3 9.7 73 2.4 WSW 32 43 17 23 1018.6 1018.6 0.0
08/05:00am 14.4 8.2 9.5 72 2.5 WSW 32 39 17 21 1018.4 1018.4 0.0
08/04:30am 14.3 7.6 9.8 74 2.3 WSW 35 43 19 23 1017.9 1017.9 0.0
08/04:00am 14.4 8.5 10.4 77 2.1 WSW 32 41 17 22 1017.4 1017.4 0.0
08/03:30am 14.6 8.2 10.6 77 2.1 WSW 35 43 19 23 1017.1 1017.1 0.0
08/03:00am 14.7 8.9 10.7 77 2.1 WSW 32 43 17 23 1017.1 1017.1 0.0
08/02:30am 14.6 8.7 10.6 77 2.1 WSW 32 39 17 21 1017.2 1017.2 0.0
08/02:00am 14.7 7.6 10.9 78 2.0 SW 39 48 21 26 1017.1 1017.1 0.0
08/01:30am 14.9 8.4 10.5 75 2.3 WSW 35 46 19 25 1017.1 1017.1 0.0
08/01:00am 14.8 8.9 11.0 78 2.0 WSW 33 44 18 24 1017.1 1017.1 0.0
08/12:30am 14.4 8.3 10.6 78 2.0 WSW 33 44 18 24 1017.2 1017.2 0.0
08/12:00am 14.3 8.4 11.1 81 1.7 WSW 33 41 18 22 1017.1 1017.1 0.0
 
Date/Time
EDT
Temp
°C
App
Temp
°C
Dew
Point
°C
Rel
Hum
%
Delta-T
°C
Wind Press
QNH
hPa
Press
MSL
hPa
Rain since
9am
mm
Dir  Spd
km/h
Gust
km/h
Spd
kts
Gust
kts
07/11:30pm 14.3 7.8 10.5 78 2.0 WSW 35 43 19 23 1017.1 1017.1 0.0
07/11:00pm 14.6 8.7 10.6 77 2.1 WSW 32 41 17 22 1016.9 1016.9 0.0
07/10:30pm 14.6 8.1 10.4 76 2.2 WSW 35 43 19 23 1016.4 1016.4 0.0
07/10:00pm 14.8 7.1 10.2 74 2.4 WSW 41 50 22 27 1016.0 1016.0 0.0
07/09:30pm 15.0 8.1 10.2 73 2.5 WSW 37 46 20 25 1016.2 1016.2 0.0
07/09:00pm 15.3 8.0 10.3 72 2.6 WSW 39 48 21 26 1015.7 1015.7 0.0
07/08:30pm 15.7 9.4 11.0 73 2.5 SW 35 41 19 22 1015.5 1015.5 0.0
07/08:00pm 15.8 7.8 11.1 73 2.5 SW 44 56 24 30 1015.0 1015.0 0.0
07/07:30pm 16.0 7.7 11.4 74 2.5 SW 46 54 25 29 1014.7 1014.7 0.0
07/07:00pm 16.0 7.4 11.6 75 2.4 SW 48 57 26 31 1014.0 1014.0 0.0
07/06:30pm 16.1 7.1 11.5 74 2.5 SW 50 59 27 32 1013.4 1013.4 0.0
07/06:00pm 16.1 7.5 11.7 75 2.4 SW 48 56 26 30 1013.1 1013.1 0.0
07/05:30pm 16.3 6.9 11.5 73 2.6 SW 52 61 28 33 1012.9 1012.9 0.0
07/05:00pm 16.3 6.7 10.9 70 2.9 SW 52 59 28 32 1012.7 1012.7 0.0
07/04:30pm 16.4 6.7 10.6 68 3.1 SW 52 61 28 33 1012.4 1012.4 0.0
07/04:00pm 16.7 6.7 10.7 67 3.2 SW 54 65 29 35 1012.4 1012.4 0.0
07/03:30pm 16.5 6.4 10.5 67 3.2 SW 54 61 29 33 1012.2 1012.2 0.0
07/03:00pm 16.3 6.3 10.7 69 3.0 SW 54 61 29 33 1012.0 1012.0 0.0
07/02:30pm 16.2 5.5 9.7 65 3.4 SW 56 65 30 35 1011.9 1011.9 0.0
07/02:00pm 16.5 6.1 10.5 67 3.2 SW 56 67 30 36 1011.9 1011.9 0.0
07/01:30pm 15.8 4.9 9.7 67 3.2 SW 57 74 31 40 1011.9 1011.9 0.0
07/01:00pm 16.0 5.5 10.3 69 3.0 SW 56 65 30 35 1012.0 1012.0 0.0
07/12:30pm 15.8 4.9 9.7 67 3.2 SW 57 65 31 35 1011.9 1011.9 0.0
07/12:00pm 16.2 6.9 9.2 63 3.6 SW 48 59 26 32 1012.2 1012.2 0.0
07/11:30am 16.3 7.5 9.6 64 3.5 SW 46 56 25 30 1012.4 1012.4 0.0
07/11:00am 18.4 11.6 7.6 49 5.5 WSW 33 44 18 24 1012.8 1012.8 0.0
07/10:30am 17.2 10.4 7.7 53 4.8 WSW 33 41 18 22 1013.1 1013.1 0.0
07/10:00am 16.2 9.0 7.6 56 4.3 WSW 35 48 19 26 1013.2 1013.2 0.0
07/09:30am 16.2 8.9 7.1 55 4.5 WSW 35 46 19 25 1013.1 1013.1 0.0
07/09:00am 15.9 8.4 6.5 53 4.6 WSW 35 46 19 25 1013.1 1013.1 0.0
07/08:30am 15.4 7.7 7.1 57 4.1 WSW 37 48 20 26 1013.0 1013.0 0.0
07/08:00am 14.8 6.5 6.3 56 4.1 W 39 48 21 26 1013.0 1013.0 0.0
07/07:30am 14.3 6.4 6.2 58 3.9 W 37 50 20 27 1013.0 1013.0 0.0
07/07:00am 13.9 6.4 6.2 59 3.7 W 35 46 19 25 1012.8 1012.8 0.0
07/06:30am 13.5 6.4 6.6 63 3.3 W 33 44 18 24 1012.5 1012.5 0.0
07/06:00am 13.3 6.4 6.6 64 3.2 W 32 41 17 22 1012.0 1012.0 0.0
07/05:30am 13.4 6.4 6.8 64 3.2 W 33 41 18 22 1011.9 1011.9 0.0
07/05:00am 13.7 6.3 6.7 62 3.4 W 35 46 19 25 1012.0 1012.0 0.0
07/04:30am 14.3 6.6 7.2 62 3.5 WSW 37 52 20 28 1011.8 1011.8 0.0
07/04:00am 14.3 7.2 7.9 65 3.2 WSW 35 44 19 24 1011.7 1011.7 0.0
07/03:30am 14.2 6.2 7.5 64 3.3 WSW 39 50 21 27 1011.7 1011.7 0.0
07/03:00am 14.1 5.2 7.6 65 3.2 WSW 44 57 24 31 1011.4 1011.4 0.0
07/02:30am 14.3 7.3 8.5 68 2.9 WSW 35 44 19 24 1011.7 1011.7 0.0
07/02:00am 14.3 7.3 8.5 68 2.9 WSW 35 44 19 24 1011.6 1011.6 0.0
07/01:30am 14.6 8.0 8.4 66 3.1 WSW 33 43 18 23 1011.8 1011.8 0.0
07/01:00am 14.7 8.1 7.9 63 3.4 WSW 32 37 17 20 1011.7 1011.7 0.0
07/12:30am 14.4 6.6 8.4 67 3.0 WSW 39 50 21 27 1011.8 1011.8 0.0
07/12:00am 14.6 6.6 8.9 68 2.9 WSW 41 50 22 27 1011.6 1011.6 0.0
 
Date/Time
EDT
Temp
°C
App
Temp
°C
Dew
Point
°C
Rel
Hum
%
Delta-T
°C
Wind Press
QNH
hPa
Press
MSL
hPa
Rain since
9am
mm
Dir  Spd
km/h
Gust
km/h
Spd
kts
Gust
kts
06/11:30pm 14.6 8.3 9.1 69 2.8 WSW 32 41 17 22 1011.9 1011.9 0.0
06/11:00pm 14.4 7.1 8.7 68 2.9 WSW 37 50 20 27 1011.7 1011.7 0.0
06/10:30pm 14.7 6.8 9.5 71 2.7 WSW 41 52 22 28 1011.7 1011.7 0.0
06/10:00pm 14.8 7.7 9.6 71 2.7 WSW 37 46 20 25 1011.3 1011.3 0.0
06/09:30pm 14.7 8.0 9.5 71 2.7 WSW 35 46 19 25 1011.1 1011.1 0.0
06/09:00pm 15.1 8.1 9.9 71 2.7 WSW 37 44 20 24 1010.7 1010.7 0.0
06/08:30pm 14.9 7.5 9.7 71 2.7 WSW 39 50 21 27 1009.9 1009.9 0.0
06/08:00pm 15.5 6.5 10.4 71 2.7 SW 48 57 26 31 1009.8 1009.8 0.0
06/07:30pm 15.7 5.9 10.2 70 2.9 SW 52 63 28 34 1009.3 1009.3 0.0
06/07:00pm 16.6 9.2 10.0 65 3.5 SW 39 48 21 26 1008.3 1008.3 0.0
06/06:30pm 16.4 8.9 10.8 69 3.0 SW 41 50 22 27 1007.9 1007.9 0.0
06/06:00pm 15.8 6.5 10.5 71 2.8 SW 50 63 27 34 1007.5 1007.5 0.0
06/05:30pm 16.2 5.7 10.4 68 3.1 SW 56 65 30 35 1007.1 1007.1 0.0
06/05:00pm 16.5 6.6 9.6 63 3.6 SW 52 65 28 35 1006.8 1006.8 0.0
06/04:30pm 16.8 5.8 9.1 60 4.0 SW 57 69 31 37 1006.8 1006.8 0.0
06/04:00pm 16.5 7.3 9.4 63 3.7 SW 48 61 26 33 1007.1 1007.1 0.0
06/03:30pm 16.4 5.7 9.7 64 3.5 SSW 56 67 30 36 1006.6 1006.6 0.0
06/03:00pm 16.6 5.1 8.6 59 4.1 SW 59 74 32 40 1006.0 1006.0 0.0
06/02:30pm 16.7 5.0 9.2 61 3.9 SW 61 72 33 39 1005.9 1005.9 0.0
06/02:00pm 16.5 5.4 8.7 60 4.0 SW 57 67 31 36 1006.2 1006.2 0.0
06/01:30pm 16.7 5.5 8.3 57 4.3 SW 57 69 31 37 1006.4 1006.4 0.0
06/01:00pm 16.3 4.8 8.7 60 3.9 SW 59 69 32 37 1006.6 1006.6 0.0
06/12:30pm 16.5 5.5 8.5 59 4.1 SW 56 65 30 35 1007.1 1007.1 0.0
06/12:00pm 17.1 8.0 8.5 57 4.4 SW 46 56 25 30 1007.4 1007.4 0.0
06/11:58am 17.2 8.4 8.2 55 4.6 SW 44 56 24 30 1007.4 1007.4 0.0
06/11:30am 18.4 12.3 8.3 51 5.2 WSW 30 35 16 19 1007.9 1007.9 0.0
06/11:00am 16.9 11.1 7.8 55 4.6 WSW 28 33 15 18 1007.8 1007.8 0.0
06/10:30am 16.9 12.6 9.2 60 4.0 WSW 22 30 12 16 1007.9 1007.9 0.0
06/10:00am 15.8 10.5 8.5 62 3.7 WSW 26 33 14 18 1008.0 1008.0 0.0
06/09:30am 15.9 9.3 8.7 62 3.7 WSW 33 41 18 22 1007.9 1007.9 0.0
06/09:00am 16.6 8.9 8.8 60 4.0 WSW 39 46 21 25 1007.5 1007.5 0.0
06/08:30am 15.6 8.4 9.0 65 3.4 WSW 37 50 20 27 1007.5 1007.5 0.0
06/08:00am 15.2 8.8 8.7 65 3.3 WSW 32 43 17 23 1007.6 1007.6 0.0
06/07:30am 15.3 10.2 9.1 66 3.2 WSW 26 33 14 18 1007.3 1007.3 0.0
06/07:00am 15.1 10.0 9.1 67 3.1 WSW 26 35 14 19 1007.0 1007.0 0.0
06/06:30am 15.1 10.5 9.7 70 2.8 WSW 24 32 13 17 1006.7 1006.7 0.0

Other formats

Comma delimited format used in spreadsheet applications
http://www.bom.gov.au/fwo/IDV60801/IDV60801.94933.axf

JavaScript Object Notation format (JSON) in row-major order
http://www.bom.gov.au/fwo/IDV60801/IDV60801.94933.json

Data quality

Most of these data are generated automatically and are frequently updated. Quality checks on data are not normally performed. It is possible for incorrect values to appear. Refer to information at About Latest Weather Observations and please check the disclaimer before using these data.